createdAt,value
2018-06-02T00:02:12.739Z,5.53
2018-06-02T00:04:41.983Z,5.40
2018-06-02T00:07:09.510Z,5.00
2018-06-02T00:09:37.064Z,5.50
2018-06-02T00:12:05.214Z,5.37
2018-06-02T00:14:34.438Z,4.73
2018-06-02T00:17:02.054Z,5.30
2018-06-02T00:19:29.575Z,5.30
2018-06-02T00:21:57.118Z,4.87
2018-06-02T00:24:24.910Z,5.37
2018-06-02T00:26:52.430Z,5.70
2018-06-02T00:29:20.738Z,5.40
2018-06-02T00:31:48.689Z,5.90
2018-06-02T00:34:16.239Z,5.57
2018-06-02T00:36:44.541Z,6.37
2018-06-02T00:39:12.781Z,5.93
2018-06-02T00:41:41.254Z,5.93
2018-06-02T00:44:08.807Z,6.10
2018-06-02T00:46:36.349Z,6.13
2018-06-02T00:49:03.924Z,5.77
2018-06-02T00:51:31.475Z,6.07
2018-06-02T00:54:01.015Z,5.83
2018-06-02T00:56:28.569Z,5.47
2018-06-02T00:58:57.508Z,5.70
2018-06-02T01:01:25.181Z,6.67
2018-06-02T01:03:52.778Z,6.43
2018-06-02T01:06:20.306Z,6.63
2018-06-02T01:08:48.491Z,6.80
2018-06-02T01:11:16.047Z,6.87
2018-06-02T01:13:43.590Z,5.53
2018-06-02T01:16:11.146Z,5.80
2018-06-02T01:18:38.763Z,6.70
2018-06-02T01:21:06.294Z,6.73
2018-06-02T01:23:34.556Z,5.83
2018-06-02T01:26:02.098Z,5.10
2018-06-02T01:28:29.625Z,5.23
2018-06-02T01:30:58.384Z,6.40
2018-06-02T01:33:25.916Z,6.60
2018-06-02T01:35:53.435Z,8.57
2018-06-02T01:38:21.747Z,6.73
2018-06-02T01:40:49.541Z,6.43
2018-06-02T01:43:17.346Z,5.70
2018-06-02T01:45:45.641Z,6.40
2018-06-02T01:48:13.270Z,6.30
2018-06-02T01:50:41.278Z,6.77
2018-06-02T01:53:08.847Z,7.63
2018-06-02T01:55:36.391Z,7.00
2018-06-02T01:58:04.603Z,6.00
2018-06-02T02:00:32.158Z,6.60
2018-06-02T02:02:59.719Z,6.57
2018-06-02T02:05:27.480Z,6.60
2018-06-02T02:07:55.202Z,6.37
2018-06-02T02:10:22.803Z,6.60
2018-06-02T02:12:50.335Z,7.07
2018-06-02T02:15:18.130Z,7.80
2018-06-02T02:17:45.689Z,6.50
2018-06-02T02:20:13.268Z,6.87
2018-06-02T02:22:41.023Z,7.00
2018-06-02T02:25:08.563Z,6.70
2018-06-02T02:27:36.095Z,7.13
2018-06-02T02:30:04.674Z,6.73
2018-06-02T02:32:33.032Z,7.70
2018-06-02T02:35:00.554Z,7.10
2018-06-02T02:37:28.094Z,7.30
2018-06-02T02:39:56.282Z,7.77
2018-06-02T02:42:24.596Z,7.70
2018-06-02T02:44:52.146Z,7.87
2018-06-02T02:47:19.674Z,8.20
2018-06-02T02:49:47.219Z,7.73
2018-06-02T02:52:14.815Z,8.03
2018-06-02T02:54:42.355Z,7.67
2018-06-02T02:57:09.882Z,6.97
2018-06-02T02:59:38.202Z,7.77
2018-06-02T03:02:05.741Z,8.53
2018-06-02T03:04:33.678Z,7.80
2018-06-02T03:07:01.217Z,8.53
2018-06-02T03:09:28.751Z,8.10
2018-06-02T03:11:56.351Z,8.67
2018-06-02T03:14:23.878Z,8.87
2018-06-02T03:16:51.430Z,8.63
2018-06-02T03:19:19.042Z,8.40
2018-06-02T03:21:46.566Z,9.17
2018-06-02T03:24:14.114Z,8.80
2018-06-02T03:26:42.450Z,8.30
2018-06-02T03:29:11.304Z,9.03
2018-06-02T03:31:38.833Z,8.70
2018-06-02T03:34:07.155Z,8.60
2018-06-02T03:36:34.678Z,8.30
2018-06-02T03:39:05.281Z,9.00
2018-06-02T03:41:33.395Z,8.80
2018-06-02T03:44:01.595Z,8.37
2018-06-02T03:46:29.154Z,8.97
2018-06-02T03:48:57.617Z,7.77
2018-06-02T03:51:25.248Z,9.03
2018-06-02T03:53:52.802Z,9.90
2018-06-02T03:56:20.396Z,9.47
2018-06-02T03:58:48.572Z,7.73
2018-06-02T04:01:16.105Z,8.70
2018-06-02T04:03:43.631Z,8.70
2018-06-02T04:06:12.660Z,9.70
2018-06-02T04:08:40.196Z,9.97
2018-06-02T04:11:08.588Z,10.50
2018-06-02T04:13:36.130Z,9.37
2018-06-02T04:16:04.492Z,10.03
2018-06-02T04:18:32.057Z,10.20
2018-06-02T04:20:59.587Z,10.33
2018-06-02T04:23:27.134Z,9.83
2018-06-02T04:25:54.662Z,9.33
2018-06-02T04:28:22.218Z,10.50
2018-06-02T04:30:50.531Z,11.50
2018-06-02T04:33:18.509Z,11.70
2018-06-02T04:35:46.067Z,11.37
2018-06-02T04:38:13.618Z,11.90
2018-06-02T04:40:41.178Z,11.53
2018-06-02T04:43:08.712Z,11.73
2018-06-02T04:45:36.255Z,12.40
2018-06-02T04:48:04.707Z,11.40
2018-06-02T04:50:32.307Z,12.63
2018-06-02T04:52:59.871Z,12.60
2018-06-02T04:55:27.498Z,13.47
2018-06-02T04:57:55.036Z,12.63
2018-06-02T05:00:22.579Z,12.67
2018-06-02T05:02:50.466Z,11.70
2018-06-02T05:05:19.011Z,12.20
2018-06-02T05:07:46.550Z,12.33
2018-06-02T05:10:14.871Z,11.50
2018-06-02T05:12:42.439Z,11.33
2018-06-02T05:15:10.059Z,11.80
2018-06-02T05:17:37.544Z,10.90
2018-06-02T05:20:06.264Z,10.97
2018-06-02T05:22:34.074Z,12.47
2018-06-02T05:25:02.379Z,13.00
2018-06-02T05:27:30.018Z,11.70
2018-06-02T05:29:57.551Z,12.37
2018-06-02T05:32:25.167Z,12.63
2018-06-02T05:34:52.731Z,11.03
2018-06-02T05:37:20.265Z,11.50
2018-06-02T05:39:48.074Z,12.43
2018-06-02T05:42:15.642Z,11.43
2018-06-02T05:44:43.179Z,11.13
2018-06-02T05:47:10.798Z,11.27
2018-06-02T05:49:38.310Z,9.73
2018-06-02T05:52:05.848Z,8.60
2018-06-02T05:54:33.620Z,8.80
2018-06-02T05:57:01.254Z,8.90
2018-06-02T05:59:28.790Z,8.93
2018-06-02T06:01:56.348Z,8.07
2018-06-02T06:04:23.894Z,7.90
2018-06-02T06:06:51.558Z,8.33
2018-06-02T06:09:19.889Z,7.33
2018-06-02T06:11:47.414Z,7.00
2018-06-02T06:14:21.015Z,6.33
2018-06-02T06:16:49.381Z,5.87
2018-06-02T06:19:17.067Z,5.97
2018-06-02T06:21:45.363Z,5.90
2018-06-02T06:24:12.923Z,5.37
2018-06-02T06:26:40.509Z,4.60
2018-06-02T06:29:08.039Z,4.03
2018-06-02T06:31:35.588Z,4.77
2018-06-02T06:34:03.883Z,4.50
2018-06-02T06:36:31.462Z,4.73
2018-06-02T06:38:58.997Z,4.53
2018-06-02T06:41:27.454Z,3.90
2018-06-02T06:43:55.914Z,4.97
2018-06-02T06:46:23.480Z,6.07
2018-06-02T06:48:51.009Z,5.80
2018-06-02T06:51:18.547Z,5.47
2018-06-02T06:53:46.093Z,4.60
2018-06-02T06:56:13.642Z,5.13
2018-06-02T06:58:42.083Z,5.20
2018-06-02T07:01:09.605Z,4.40
2018-06-02T07:03:37.155Z,4.47
2018-06-02T07:06:04.866Z,4.80
2018-06-02T07:08:32.423Z,4.90
2018-06-02T07:11:00.850Z,5.43
2018-06-02T07:13:29.142Z,4.47
2018-06-02T07:15:56.747Z,4.57
2018-06-02T07:18:24.281Z,5.30
2018-06-02T07:20:52.633Z,4.50
2018-06-02T07:23:20.179Z,4.23
2018-06-02T07:25:48.618Z,4.47
2018-06-02T07:28:16.162Z,3.90
2018-06-02T07:30:43.690Z,4.00
2018-06-02T07:33:12.899Z,3.77
2018-06-02T07:35:41.195Z,4.17
2018-06-02T07:38:08.745Z,4.10
2018-06-02T07:40:36.287Z,4.63
2018-06-02T07:43:05.381Z,4.40
2018-06-02T07:45:33.686Z,3.80
2018-06-02T07:48:01.223Z,4.37
2018-06-02T07:50:29.505Z,4.87
2018-06-02T07:52:57.078Z,4.10
2018-06-02T07:55:24.610Z,4.37
2018-06-02T07:57:52.921Z,4.13
2018-06-02T08:00:20.465Z,3.78
2018-06-02T08:02:48.324Z,3.75
2018-06-02T08:05:15.878Z,3.58
2018-06-02T08:07:43.520Z,3.97
2018-06-02T08:10:11.913Z,3.35
2018-06-02T08:12:39.503Z,3.58
2018-06-02T08:15:07.087Z,3.53
2018-06-02T08:17:34.721Z,3.58
2018-06-02T08:20:02.282Z,3.20
2018-06-02T08:22:29.834Z,3.17
2018-06-02T08:24:57.503Z,3.33
2018-06-02T08:27:25.908Z,3.87
2018-06-02T08:29:53.487Z,3.58
2018-06-02T08:32:21.033Z,3.12
2018-06-02T08:34:48.705Z,3.25
2018-06-02T08:37:16.292Z,3.50
2018-06-02T08:39:44.633Z,3.85
2018-06-02T08:42:12.191Z,3.92
2018-06-02T08:44:39.750Z,3.30
2018-06-02T08:47:07.402Z,3.35
2018-06-02T08:49:34.982Z,3.33
2018-06-02T08:52:02.532Z,3.08
2018-06-02T08:54:30.167Z,2.40
2018-06-02T08:56:57.655Z,2.70
2018-06-02T08:59:26.033Z,2.90
2018-06-02T09:01:53.611Z,2.92
2018-06-02T09:04:21.176Z,3.30
2018-06-02T09:06:48.726Z,3.90
2018-06-02T09:09:16.325Z,3.15
2018-06-02T09:11:44.654Z,2.95
2018-06-02T09:14:12.214Z,2.95
2018-06-02T09:16:39.893Z,3.30
2018-06-02T09:19:07.431Z,2.70
2018-06-02T09:21:34.994Z,2.60
2018-06-02T09:24:03.133Z,2.67
2018-06-02T09:26:30.709Z,2.87
2018-06-02T09:28:58.270Z,2.70
2018-06-02T09:31:26.232Z,3.37
2018-06-02T09:33:53.786Z,3.25
2018-06-02T09:36:21.355Z,2.50
2018-06-02T09:38:48.908Z,2.80
2018-06-02T09:41:16.474Z,2.78
2018-06-02T09:43:44.812Z,2.22
2018-06-02T09:46:13.154Z,2.85
2018-06-02T09:48:40.802Z,3.22
2018-06-02T09:51:09.131Z,3.10
2018-06-02T09:53:37.458Z,3.47
2018-06-02T09:56:05.129Z,2.70
2018-06-02T09:58:32.762Z,2.58
2018-06-02T10:01:00.321Z,2.67
2018-06-02T10:03:27.881Z,2.20
2018-06-02T10:05:55.540Z,2.83
2018-06-02T10:08:23.858Z,2.40
2018-06-02T10:10:51.560Z,2.10
2018-06-02T10:13:20.070Z,2.70
2018-06-02T10:15:47.793Z,2.40
2018-06-02T10:18:15.335Z,2.45
2018-06-02T10:20:42.916Z,2.30
2018-06-02T10:23:10.483Z,2.90
2018-06-02T10:25:38.811Z,2.65
2018-06-02T10:28:06.366Z,2.80
2018-06-02T10:30:33.954Z,2.20
2018-06-02T10:33:01.551Z,2.25
2018-06-02T10:35:29.949Z,2.60
2018-06-02T10:37:57.766Z,2.40
2018-06-02T10:40:25.351Z,2.22
2018-06-02T10:42:53.677Z,2.47
2018-06-02T10:45:21.243Z,2.25
2018-06-02T10:47:49.234Z,2.10
2018-06-02T10:50:16.790Z,2.10
2018-06-02T10:52:45.616Z,2.60
2018-06-02T10:55:13.951Z,2.20
2018-06-02T10:57:41.513Z,2.20
2018-06-02T11:00:09.078Z,2.28
2018-06-02T11:02:36.672Z,2.08
2018-06-02T11:05:04.233Z,2.70
2018-06-02T11:07:32.587Z,2.20
2018-06-02T11:10:00.366Z,2.28
2018-06-02T11:12:27.918Z,2.72
2018-06-02T11:14:55.593Z,2.50
2018-06-02T11:17:24.041Z,2.70
2018-06-02T11:19:51.599Z,2.25
2018-06-02T11:22:19.994Z,2.40
2018-06-02T11:24:47.542Z,2.65
2018-06-02T11:27:15.114Z,2.35
2018-06-02T11:29:42.666Z,2.67
2018-06-02T11:32:10.243Z,2.22
2018-06-02T11:34:37.794Z,2.42
2018-06-02T11:37:05.671Z,2.42
2018-06-02T11:39:33.850Z,2.70
2018-06-02T11:42:01.406Z,2.55
2018-06-02T11:44:28.977Z,2.28
2018-06-02T11:46:56.569Z,2.40
2018-06-02T11:49:24.139Z,2.40
2018-06-02T11:51:51.710Z,2.55
2018-06-02T11:54:19.454Z,2.62
2018-06-02T11:57:14.071Z,2.40
2018-06-02T11:59:43.847Z,2.53
2018-06-02T12:02:12.974Z,2.42
2018-06-02T12:04:47.172Z,2.60
2018-06-02T12:07:14.746Z,2.33
2018-06-02T12:09:42.995Z,2.00
2018-06-02T12:12:11.563Z,2.90
2018-06-02T12:14:39.127Z,2.47
2018-06-02T12:17:06.674Z,2.50
2018-06-02T12:19:34.248Z,2.72
2018-06-02T12:22:01.799Z,2.70
2018-06-02T12:24:29.419Z,2.65
2018-06-02T12:26:57.287Z,2.87
2018-06-02T12:29:24.843Z,2.28
2018-06-02T12:31:52.399Z,2.08
2018-06-02T12:34:19.951Z,2.58
2018-06-02T12:36:47.518Z,2.37
2018-06-02T12:39:15.073Z,2.45
2018-06-02T12:41:43.402Z,2.67
2018-06-02T12:44:10.958Z,2.10
2018-06-02T12:46:38.531Z,2.00
2018-06-02T12:49:06.096Z,2.10
2018-06-02T12:51:33.840Z,2.35
2018-06-02T12:54:01.404Z,2.17
2018-06-02T12:56:28.954Z,2.22
2018-06-02T12:58:56.519Z,2.00
2018-06-02T13:01:24.069Z,2.40
2018-06-02T13:03:51.683Z,2.55
2018-06-02T13:06:20.003Z,2.33
2018-06-02T13:08:47.560Z,2.33
2018-06-02T13:11:15.122Z,2.40
2018-06-02T13:13:43.482Z,2.53
2018-06-02T13:16:11.638Z,2.40
2018-06-02T13:18:39.194Z,2.50
2018-06-02T13:21:06.758Z,2.60
2018-06-02T13:23:34.450Z,2.20
2018-06-02T13:26:02.010Z,1.87
2018-06-02T13:28:29.571Z,2.37
2018-06-02T13:30:58.294Z,1.95
2018-06-02T13:33:26.856Z,2.12
2018-06-02T13:35:54.403Z,2.33
2018-06-02T13:38:21.976Z,2.40
2018-06-02T13:40:50.495Z,2.25
2018-06-02T13:43:18.835Z,2.33
2018-06-02T13:45:46.406Z,2.30
2018-06-02T13:48:13.979Z,2.10
2018-06-02T13:50:41.535Z,2.17
2018-06-02T13:53:09.106Z,2.22
2018-06-02T13:55:36.668Z,2.00
2018-06-02T13:58:04.230Z,2.20
2018-06-02T14:00:31.807Z,2.45
2018-06-02T14:03:00.146Z,2.40
2018-06-02T14:05:27.707Z,2.22
2018-06-02T14:07:55.279Z,1.80
2018-06-02T14:10:22.958Z,2.58
2018-06-02T14:12:50.534Z,2.10
2018-06-02T14:15:18.870Z,1.90
2018-06-02T14:17:46.532Z,1.95
2018-06-02T14:20:14.292Z,2.30
2018-06-02T14:22:42.731Z,2.03
2018-06-02T14:25:10.299Z,2.17
2018-06-02T14:27:37.861Z,1.90
2018-06-02T14:30:05.434Z,2.20
2018-06-02T14:32:33.308Z,1.92
2018-06-02T14:35:00.943Z,2.00
2018-06-02T14:37:29.251Z,1.90
2018-06-02T14:39:57.228Z,1.90
2018-06-02T14:42:24.800Z,2.30
2018-06-02T14:44:52.349Z,2.05
2018-06-02T14:47:19.919Z,2.10
2018-06-02T14:49:47.470Z,1.85
2018-06-02T14:52:15.088Z,2.22
2018-06-02T14:54:42.663Z,2.47
2018-06-02T14:57:10.211Z,2.12
2018-06-02T14:59:37.775Z,2.12
2018-06-02T15:02:05.392Z,2.33
2018-06-02T15:04:34.286Z,2.15
2018-06-02T15:07:01.829Z,2.17
2018-06-02T15:09:29.395Z,2.15
2018-06-02T15:11:57.084Z,2.25
2018-06-02T15:14:24.963Z,3.97
2018-06-02T15:16:53.290Z,1.90
2018-06-02T15:19:20.844Z,2.83
2018-06-02T15:21:48.434Z,2.35
2018-06-02T15:24:15.966Z,3.00
2018-06-02T15:26:43.530Z,2.10
2018-06-02T15:29:11.346Z,2.15
2018-06-02T15:31:38.901Z,2.10
2018-06-02T15:34:07.216Z,2.00
2018-06-02T15:36:35.460Z,1.92
2018-06-02T15:39:04.308Z,2.58
2018-06-02T15:41:31.867Z,2.10
2018-06-02T15:43:59.437Z,2.25
2018-06-02T15:46:27.047Z,2.60
2018-06-02T15:48:54.627Z,2.62
2018-06-02T15:51:22.223Z,2.80
2018-06-02T15:53:49.813Z,2.50
2018-06-02T15:56:18.235Z,2.20
2018-06-02T15:58:45.804Z,2.30
2018-06-02T16:01:13.364Z,2.45
2018-06-02T16:03:41.526Z,1.90
2018-06-02T16:06:09.092Z,2.60
2018-06-02T16:08:36.641Z,2.45
2018-06-02T16:11:04.283Z,2.78
2018-06-02T16:13:32.599Z,2.58
2018-06-02T16:16:00.179Z,2.33
2018-06-02T16:18:27.755Z,2.17
2018-06-02T16:20:55.323Z,2.50
2018-06-02T16:23:22.890Z,2.50
2018-06-02T16:25:51.416Z,2.65
2018-06-02T16:28:19.008Z,2.40
2018-06-02T16:30:46.591Z,2.22
2018-06-02T16:33:14.190Z,2.53
2018-06-02T16:35:41.751Z,2.75
2018-06-02T16:38:09.321Z,2.37
2018-06-02T16:40:36.910Z,2.40
2018-06-02T16:43:04.498Z,2.75
2018-06-02T16:45:32.850Z,2.83
2018-06-02T16:48:00.424Z,2.85
2018-06-02T16:50:28.010Z,2.67
2018-06-02T16:52:56.466Z,2.85
2018-06-02T16:55:24.039Z,2.60
2018-06-02T16:57:52.362Z,2.70
2018-06-02T17:00:20.773Z,2.60
2018-06-02T17:02:48.606Z,3.03
2018-06-02T17:05:16.167Z,2.58
2018-06-02T17:07:43.753Z,2.67
2018-06-02T17:10:11.936Z,3.17
2018-06-02T17:12:39.503Z,2.42
2018-06-02T17:15:07.075Z,2.55
2018-06-02T17:17:35.491Z,2.85
2018-06-02T17:20:03.095Z,2.70
2018-06-02T17:22:30.660Z,2.47
2018-06-02T17:24:58.348Z,2.72
2018-06-02T17:27:27.008Z,2.60
2018-06-02T17:29:54.623Z,2.47
2018-06-02T17:32:22.949Z,2.80
2018-06-02T17:34:50.519Z,2.27
2018-06-02T17:37:18.146Z,3.00
2018-06-02T17:39:45.678Z,3.50
2018-06-02T17:42:13.996Z,2.83
2018-06-02T17:44:42.327Z,3.00
2018-06-02T17:47:09.880Z,2.87
2018-06-02T17:49:37.415Z,2.67
2018-06-02T17:52:05.774Z,2.87
2018-06-02T17:54:33.303Z,3.07
2018-06-02T17:57:01.616Z,2.47
2018-06-02T17:59:29.156Z,2.77
2018-06-02T18:01:57.991Z,2.70
2018-06-02T18:04:26.365Z,2.50
2018-06-02T18:06:53.905Z,2.73
2018-06-02T18:09:21.442Z,2.60
2018-06-02T18:11:49.872Z,2.40
2018-06-02T18:14:17.405Z,2.87
2018-06-02T18:16:45.019Z,3.50
2018-06-02T18:19:13.616Z,3.47
2018-06-02T18:21:41.447Z,2.60
2018-06-02T18:24:09.038Z,3.13
2018-06-02T18:26:37.375Z,2.80
2018-06-02T18:29:05.735Z,2.73
2018-06-02T18:31:33.550Z,2.73
2018-06-02T18:34:01.095Z,2.70
2018-06-02T18:36:29.215Z,2.83
2018-06-02T18:38:56.863Z,3.00
2018-06-02T18:41:25.179Z,3.20
2018-06-02T18:43:53.778Z,2.80
2018-06-02T18:46:21.310Z,2.50
2018-06-02T18:48:49.005Z,2.87
2018-06-02T18:51:16.568Z,2.63
2018-06-02T18:53:44.113Z,2.50
2018-06-02T18:56:12.559Z,2.77
2018-06-02T18:58:40.105Z,6.47
2018-06-02T19:01:08.434Z,3.60
2018-06-02T19:03:35.957Z,2.87
2018-06-02T19:06:03.710Z,2.87
2018-06-02T19:08:32.019Z,2.60
2018-06-02T19:11:00.970Z,2.90
2018-06-02T19:13:29.282Z,3.00
2018-06-02T19:15:57.243Z,2.73
2018-06-02T19:18:24.818Z,2.83
2018-06-02T19:20:52.371Z,2.73
2018-06-02T19:23:20.629Z,2.47
2018-06-02T19:25:49.148Z,2.83
2018-06-02T19:28:16.703Z,2.80
2018-06-02T19:30:44.238Z,3.00
2018-06-02T19:33:12.025Z,3.00
2018-06-02T19:35:40.317Z,2.73
2018-06-02T19:38:07.847Z,3.03
2018-06-02T19:40:36.153Z,2.90
2018-06-02T19:43:04.647Z,3.40
2018-06-02T19:45:32.185Z,2.93
2018-06-02T19:47:59.715Z,3.67
2018-06-02T19:50:28.031Z,3.40
2018-06-02T19:52:55.581Z,2.90
2018-06-02T19:55:23.150Z,3.10
2018-06-02T19:57:50.667Z,3.30
2018-06-02T20:00:19.544Z,2.80
2018-06-02T20:02:47.106Z,2.83
2018-06-02T20:05:14.649Z,3.23
2018-06-02T20:07:42.194Z,3.23
2018-06-02T20:10:09.760Z,3.30
2018-06-02T20:12:37.342Z,3.37
2018-06-02T20:15:05.076Z,3.43
2018-06-02T20:17:33.671Z,3.20
2018-06-02T20:20:01.198Z,3.17
2018-06-02T20:22:28.743Z,3.37
2018-06-02T20:24:56.994Z,3.50
2018-06-02T20:27:24.593Z,3.27
2018-06-02T20:29:52.152Z,3.13
2018-06-02T20:32:20.408Z,3.47
2018-06-02T20:34:47.947Z,3.37
2018-06-02T20:37:15.482Z,3.27
2018-06-02T20:39:43.076Z,3.10
2018-06-02T20:42:11.419Z,3.73
2018-06-02T20:44:38.963Z,4.20
2018-06-02T20:47:06.519Z,3.00
2018-06-02T20:49:34.770Z,3.43
2018-06-02T20:52:03.071Z,3.87
2018-06-02T20:54:30.639Z,3.30
2018-06-02T20:56:58.295Z,3.27
2018-06-02T20:59:25.923Z,3.53
2018-06-02T21:01:54.226Z,3.90
2018-06-02T21:04:21.867Z,3.17
2018-06-02T21:06:50.434Z,3.33
2018-06-02T21:09:18.998Z,3.40
2018-06-02T21:11:46.544Z,3.70
2018-06-02T21:14:14.079Z,3.60
2018-06-02T21:16:41.842Z,3.97
2018-06-02T21:19:09.390Z,3.47
2018-06-02T21:21:37.038Z,4.10
2018-06-02T21:24:05.529Z,3.83
2018-06-02T21:26:33.063Z,5.00
2018-06-02T21:29:01.453Z,5.07
2018-06-02T21:31:29.357Z,4.27
2018-06-02T21:33:58.059Z,4.20
2018-06-02T21:36:25.590Z,3.93
2018-06-02T21:38:53.140Z,4.40
2018-06-02T21:41:20.670Z,3.80
2018-06-02T21:43:48.259Z,3.67
2018-06-02T21:46:15.868Z,3.80
2018-06-02T21:48:44.112Z,4.07
2018-06-02T21:51:12.339Z,4.37
2018-06-02T21:53:39.931Z,3.97
2018-06-02T21:56:08.233Z,4.10
2018-06-02T21:58:35.782Z,4.87
2018-06-02T22:01:03.323Z,4.17
2018-06-02T22:03:31.668Z,4.00
2018-06-02T22:05:59.193Z,4.13
2018-06-02T22:08:26.808Z,4.23
2018-06-02T22:10:54.343Z,4.60
2018-06-02T22:13:22.209Z,3.80
2018-06-02T22:15:50.222Z,4.30
2018-06-02T22:18:19.116Z,4.10
2018-06-02T22:20:47.424Z,4.60
2018-06-02T22:23:15.312Z,4.93
2018-06-02T22:25:42.855Z,4.30
2018-06-02T22:28:10.398Z,3.93
2018-06-02T22:30:37.937Z,4.20
2018-06-02T22:33:06.247Z,5.00
2018-06-02T22:35:34.674Z,4.93
2018-06-02T22:38:02.223Z,4.33
2018-06-02T22:40:29.785Z,4.80
2018-06-02T22:42:57.535Z,4.70
2018-06-02T22:45:25.115Z,4.47
2018-06-02T22:47:52.643Z,5.00
2018-06-02T22:50:21.257Z,4.70
2018-06-02T22:52:48.791Z,4.70
2018-06-02T22:55:16.347Z,5.23
2018-06-02T22:57:43.879Z,4.93
2018-06-02T23:00:20.643Z,5.20
2018-06-02T23:02:48.234Z,5.03
2018-06-02T23:05:15.791Z,5.83
2018-06-02T23:07:43.743Z,5.27
2018-06-02T23:10:11.449Z,5.17
2018-06-02T23:12:39.610Z,5.30
2018-06-02T23:15:07.144Z,5.30
2018-06-02T23:17:35.166Z,5.13
2018-06-02T23:20:02.727Z,5.47
2018-06-02T23:22:39.049Z,4.93
2018-06-02T23:25:07.423Z,4.83
2018-06-02T23:27:35.685Z,5.93
2018-06-02T23:30:04.045Z,4.80
2018-06-02T23:32:31.776Z,5.43
2018-06-02T23:34:59.377Z,5.87
2018-06-02T23:37:28.490Z,5.70
2018-06-02T23:39:56.272Z,5.77
2018-06-02T23:42:23.831Z,4.67
2018-06-02T23:44:51.383Z,5.67
2018-06-02T23:47:19.160Z,4.73
2018-06-02T23:49:46.706Z,5.03
2018-06-02T23:52:14.294Z,5.30
2018-06-02T23:54:42.264Z,5.33
2018-06-02T23:57:09.824Z,5.53
2018-06-02T23:59:37.367Z,5.50
